Time;durP1;ratioP1;P1;durP2;ratioP2;P2;SDS_P1;SDS_P2;PMS_P1;PMS_P2;Temp;Humidity;BMP_temperature;BMP_pressure;BME280_temperature;BME280_humidity;BME280_pressure;Samples;Min_cycle;Max_cycle;Signal;HPM_P1;HPM_P2
2022/07/22 00:01:19;;;;;;;8.65;2.70;;;16.50;99.90;;;;;;4869486;29;20051;-78
2022/07/22 00:03:45;;;;;;;4.32;2.33;;;16.40;99.90;;;;;;4859368;29;20849;-76
2022/07/22 00:06:11;;;;;;;6.70;2.50;;;16.40;99.90;;;;;;4857719;29;20056;-77
2022/07/22 00:08:36;;;;;;;8.98;2.53;;;16.40;99.90;;;;;;4846972;29;20041;-77
2022/07/22 00:11:03;;;;;;;8.93;2.40;;;16.40;99.90;;;;;;4863150;29;20052;-77
2022/07/22 00:13:28;;;;;;;8.82;2.83;;;16.40;99.90;;;;;;4891881;29;20106;-77
2022/07/22 00:15:54;;;;;;;8.20;2.47;;;16.40;99.90;;;;;;4872913;29;20045;-88
2022/07/22 00:18:20;;;;;;;8.30;2.28;;;16.40;99.90;;;;;;4865611;29;20045;-86
2022/07/22 00:20:45;;;;;;;8.60;2.63;;;16.40;99.90;;;;;;4881074;29;20367;-88
2022/07/22 00:23:11;;;;;;;6.05;2.58;;;16.40;99.90;;;;;;4866810;29;20232;-86
2022/07/22 00:25:37;;;;;;;6.90;2.50;;;16.40;99.90;;;;;;4863848;29;20100;-87
2022/07/22 00:28:03;;;;;;;9.80;3.10;;;16.40;99.90;;;;;;4881831;29;20542;-88
2022/07/22 00:30:29;;;;;;;8.90;2.47;;;16.40;99.90;;;;;;4868748;29;20095;-87
2022/07/22 00:32:54;;;;;;;9.23;2.45;;;16.40;99.90;;;;;;4883374;29;20406;-87
2022/07/22 00:35:21;;;;;;;10.70;2.55;;;16.40;99.90;;;;;;4862264;29;20087;-87
2022/07/22 00:37:46;;;;;;;8.52;2.30;;;16.30;99.90;;;;;;4876468;29;20125;-87
2022/07/22 00:40:12;;;;;;;7.78;3.00;;;16.30;99.90;;;;;;4867768;29;20074;-87
2022/07/22 00:42:38;;;;;;;6.55;2.35;;;16.30;99.90;;;;;;4866608;29;20487;-87
2022/07/22 00:45:05;;;;;;;10.13;2.78;;;16.30;99.90;;;;;;4867001;29;20053;-87
2022/07/22 00:47:30;;;;;;;5.35;2.10;;;16.20;99.90;;;;;;4884103;29;20410;-87
2022/07/22 00:49:56;;;;;;;8.70;3.38;;;16.30;99.90;;;;;;4884835;29;20053;-87
2022/07/22 00:52:23;;;;;;;6.03;2.22;;;16.30;99.90;;;;;;4866452;29;20108;-88
2022/07/22 00:54:50;;;;;;;6.07;2.40;;;16.30;99.90;;;;;;4866239;29;20037;-88
2022/07/22 00:57:15;;;;;;;7.45;2.50;;;16.30;99.90;;;;;;4888096;29;20061;-86
2022/07/22 00:59:42;;;;;;;8.75;2.80;;;16.30;99.90;;;;;;4889480;29;20105;-86
2022/07/22 01:02:08;;;;;;;9.45;2.22;;;16.20;99.90;;;;;;4868079;29;20097;-87
2022/07/22 01:04:34;;;;;;;9.95;2.65;;;16.20;99.90;;;;;;4886322;29;20048;-86
2022/07/22 01:07:00;;;;;;;7.72;2.50;;;16.20;99.90;;;;;;4882862;29;20399;-86
2022/07/22 01:09:25;;;;;;;9.00;2.42;;;16.20;99.90;;;;;;4870166;29;20053;-86
2022/07/22 01:11:51;;;;;;;6.30;2.20;;;16.20;99.90;;;;;;4868494;29;20041;-88
2022/07/22 01:14:17;;;;;;;11.85;2.58;;;16.20;99.90;;;;;;4868515;29;20045;-87
2022/07/22 01:16:43;;;;;;;3.58;2.22;;;16.20;99.90;;;;;;4859907;29;20068;-87
2022/07/22 01:19:09;;;;;;;6.63;2.33;;;16.20;99.90;;;;;;4869783;29;20068;-87
2022/07/22 01:21:35;;;;;;;7.70;2.63;;;16.30;99.90;;;;;;4867011;29;20119;-87
2022/07/22 01:24:01;;;;;;;6.40;2.30;;;16.30;99.90;;;;;;4865634;29;20073;-87
2022/07/22 01:26:27;;;;;;;10.70;2.97;;;16.20;99.90;;;;;;4881767;29;20053;-87
2022/07/22 01:28:53;;;;;;;7.35;2.50;;;16.20;99.90;;;;;;4862260;29;20045;-88
2022/07/22 01:31:18;;;;;;;10.50;2.80;;;16.20;99.90;;;;;;4874155;29;20049;-87
2022/07/22 01:33:44;;;;;;;7.60;2.40;;;16.20;99.90;;;;;;4879021;29;20042;-88
2022/07/22 01:36:10;;;;;;;7.28;2.20;;;16.30;99.90;;;;;;4860388;29;20049;-87
2022/07/22 01:38:37;;;;;;;4.80;2.45;;;16.30;99.90;;;;;;4880000;29;20041;-87
2022/07/22 01:41:03;;;;;;;6.45;2.28;;;16.30;99.90;;;;;;4880250;29;20068;-87
2022/07/22 01:43:28;;;;;;;9.70;2.67;;;16.30;99.90;;;;;;4879218;29;20116;-87
2022/07/22 01:45:55;;;;;;;10.15;2.80;;;16.30;99.90;;;;;;4883222;29;20506;-87
2022/07/22 01:48:21;;;;;;;8.55;2.40;;;16.20;99.90;;;;;;4877022;29;20057;-87
2022/07/22 01:50:47;;;;;;;10.35;2.63;;;16.20;99.90;;;;;;4863760;29;20046;-87
2022/07/22 01:53:13;;;;;;;8.90;2.38;;;16.20;99.90;;;;;;4880023;29;20109;-87
2022/07/22 01:55:39;;;;;;;6.97;2.72;;;16.20;99.90;;;;;;4861694;29;20076;-87
2022/07/22 01:58:05;;;;;;;7.10;2.40;;;16.20;99.90;;;;;;4882043;29;20041;-87
2022/07/22 02:00:32;;;;;;;9.23;2.35;;;16.20;99.90;;;;;;4888465;29;20041;-86
2022/07/22 02:02:58;;;;;;;6.97;2.90;;;16.20;99.90;;;;;;4887624;29;20045;-87
2022/07/22 02:05:24;;;;;;;7.57;2.35;;;16.20;99.90;;;;;;4875776;29;20406;-87
2022/07/22 02:07:50;;;;;;;8.98;2.35;;;16.20;99.90;;;;;;4847639;29;20049;-86
2022/07/22 02:10:16;;;;;;;6.72;2.38;;;16.20;99.90;;;;;;4881015;29;20146;-87
2022/07/22 02:12:42;;;;;;;6.47;2.25;;;16.20;99.90;;;;;;4865427;29;20052;-86
2022/07/22 02:15:08;;;;;;;6.90;2.40;;;16.20;99.90;;;;;;4865525;29;20045;-86
2022/07/22 02:17:35;;;;;;;9.75;2.45;;;16.20;99.90;;;;;;4864573;29;21086;-86
2022/07/22 02:20:02;;;;;;;6.53;2.33;;;16.20;99.90;;;;;;4889130;29;20506;-86
2022/07/22 02:22:27;;;;;;;5.18;2.17;;;16.10;99.90;;;;;;4865119;29;20041;-86
2022/07/22 02:24:53;;;;;;;5.03;2.03;;;16.20;99.90;;;;;;4861104;29;20048;-87
2022/07/22 02:27:19;;;;;;;8.88;2.20;;;16.20;99.90;;;;;;4880808;29;20089;-85
2022/07/22 02:29:45;;;;;;;4.88;2.17;;;16.20;99.90;;;;;;4880592;29;20052;-86
2022/07/22 02:32:11;;;;;;;6.15;2.25;;;16.20;99.90;;;;;;4864763;29;20482;-86
2022/07/22 02:34:36;;;;;;;7.32;2.30;;;16.20;99.90;;;;;;4876037;29;20125;-86
2022/07/22 02:37:02;;;;;;;9.43;3.13;;;16.20;99.90;;;;;;4859463;29;20045;-87
2022/07/22 02:39:28;;;;;;;7.22;2.25;;;16.10;99.90;;;;;;4860696;29;20053;-87
2022/07/22 02:41:54;;;;;;;7.53;2.42;;;16.10;99.90;;;;;;4871097;29;20045;-87
2022/07/22 02:44:19;;;;;;;7.18;2.40;;;16.10;99.90;;;;;;4853986;29;20050;-85
2022/07/22 02:46:45;;;;;;;6.90;2.58;;;16.20;99.90;;;;;;4878271;29;20037;-86
2022/07/22 02:49:11;;;;;;;5.25;2.05;;;16.10;99.90;;;;;;4863850;29;20502;-86
2022/07/22 02:51:37;;;;;;;7.63;2.33;;;16.20;99.90;;;;;;4879736;29;20045;-86
2022/07/22 02:54:05;;;;;;;5.25;2.20;;;16.20;99.90;;;;;;4858026;29;20470;-87
2022/07/22 02:56:31;;;;;;;8.95;2.13;;;16.20;99.90;;;;;;4861106;29;20049;-87
2022/07/22 02:58:58;;;;;;;6.88;2.50;;;16.20;99.90;;;;;;4863097;29;20092;-86
2022/07/22 03:01:23;;;;;;;5.00;2.10;;;16.20;99.90;;;;;;4864164;29;20045;-86
2022/07/22 03:03:49;;;;;;;6.65;1.92;;;16.10;99.90;;;;;;4873990;29;20056;-87
2022/07/22 03:06:15;;;;;;;5.68;1.70;;;16.10;99.90;;;;;;4872196;29;20398;-87
2022/07/22 03:08:41;;;;;;;5.15;2.15;;;16.10;99.90;;;;;;4866622;29;20053;-87
2022/07/22 03:11:06;;;;;;;6.85;2.08;;;16.10;99.90;;;;;;4865328;29;20051;-87
2022/07/22 03:13:32;;;;;;;8.82;2.72;;;16.10;99.90;;;;;;4848052;29;20045;-87
2022/07/22 03:15:58;;;;;;;8.18;2.50;;;16.10;99.90;;;;;;4858169;29;20041;-87
2022/07/22 03:18:24;;;;;;;6.10;1.95;;;16.10;99.90;;;;;;4875854;29;20455;-86
2022/07/22 03:20:49;;;;;;;8.00;1.80;;;16.10;99.90;;;;;;4875065;29;20049;-87
2022/07/22 03:23:15;;;;;;;5.60;1.75;;;16.10;99.90;;;;;;4878329;29;20100;-86
2022/07/22 03:25:41;;;;;;;5.45;1.70;;;16.10;99.90;;;;;;4863815;29;20072;-87
2022/07/22 03:28:07;;;;;;;5.38;2.08;;;16.10;99.90;;;;;;4856137;29;20034;-77
2022/07/22 03:30:33;;;;;;;7.97;2.58;;;16.10;99.90;;;;;;4856866;29;20487;-77
2022/07/22 03:32:58;;;;;;;6.75;2.55;;;16.10;99.90;;;;;;4853670;29;20052;-77
2022/07/22 03:35:24;;;;;;;10.57;2.70;;;16.10;99.90;;;;;;4857571;29;20045;-77
2022/07/22 03:37:50;;;;;;;5.95;2.30;;;16.10;99.90;;;;;;4861026;29;20041;-77
2022/07/22 03:40:16;;;;;;;6.35;2.40;;;16.10;99.90;;;;;;4841527;29;20584;-78
2022/07/22 03:42:42;;;;;;;7.30;2.25;;;16.10;99.90;;;;;;4851145;29;20045;-78
2022/07/22 03:45:09;;;;;;;14.23;2.58;;;16.10;99.90;;;;;;4893271;29;20052;-78
2022/07/22 03:47:35;;;;;;;6.25;2.53;;;16.10;99.90;;;;;;4876443;29;20061;-78
2022/07/22 03:50:02;;;;;;;6.55;2.55;;;16.10;99.90;;;;;;4869920;29;20045;-78
2022/07/22 03:52:28;;;;;;;8.23;2.63;;;16.10;99.90;;;;;;4875850;29;20077;-77
2022/07/22 03:54:54;;;;;;;9.60;2.83;;;16.10;99.90;;;;;;4860220;29;20497;-77
2022/07/22 03:57:20;;;;;;;7.22;2.78;;;16.10;99.90;;;;;;4866651;29;20037;-77
2022/07/22 03:59:47;;;;;;;7.50;2.90;;;16.10;99.90;;;;;;4851364;29;20041;-77
2022/07/22 04:02:12;;;;;;;6.85;2.75;;;16.10;99.90;;;;;;4850126;29;20052;-78
2022/07/22 04:04:38;;;;;;;7.55;2.33;;;16.10;99.90;;;;;;4859446;29;20125;-78
2022/07/22 04:07:04;;;;;;;7.85;2.67;;;16.10;99.90;;;;;;4852558;29;20045;-77
2022/07/22 04:09:30;;;;;;;9.23;2.60;;;16.00;99.90;;;;;;4867816;29;20053;-77
2022/07/22 04:11:56;;;;;;;10.27;2.97;;;16.00;99.90;;;;;;4862963;29;20041;-77
2022/07/22 04:14:22;;;;;;;3.20;2.22;;;16.00;99.90;;;;;;4860264;29;20533;-77
2022/07/22 04:16:48;;;;;;;8.85;2.47;;;16.00;99.90;;;;;;4867553;29;20044;-79
2022/07/22 04:19:15;;;;;;;5.18;2.15;;;16.10;99.90;;;;;;4867367;29;20450;-78
2022/07/22 04:21:40;;;;;;;10.30;2.50;;;16.10;99.90;;;;;;4869103;29;20140;-78
2022/07/22 04:24:06;;;;;;;9.20;2.70;;;16.00;99.90;;;;;;4871261;29;20088;-78
2022/07/22 04:26:32;;;;;;;7.63;2.42;;;16.10;99.90;;;;;;4871861;29;20109;-78
2022/07/22 04:28:58;;;;;;;8.60;2.42;;;16.10;99.90;;;;;;4864505;29;20041;-78
2022/07/22 04:31:24;;;;;;;10.30;2.33;;;16.10;99.90;;;;;;4860931;29;20152;-78
2022/07/22 04:33:49;;;;;;;8.98;2.38;;;16.10;99.90;;;;;;4859659;29;20052;-78
2022/07/22 04:36:15;;;;;;;6.32;2.25;;;16.10;99.90;;;;;;4862407;29;20057;-78
2022/07/22 04:38:41;;;;;;;6.28;2.50;;;16.10;99.90;;;;;;4845835;29;20053;-78
2022/07/22 04:41:06;;;;;;;8.00;2.78;;;16.10;99.90;;;;;;4858517;29;20037;-79
2022/07/22 04:43:32;;;;;;;6.63;2.20;;;16.10;99.90;;;;;;4863517;29;20046;-77
2022/07/22 04:45:58;;;;;;;5.97;2.55;;;16.10;99.90;;;;;;4847486;29;20038;-77
2022/07/22 04:48:24;;;;;;;5.53;2.10;;;16.10;99.90;;;;;;4889368;29;20061;-78
2022/07/22 04:50:50;;;;;;;5.88;2.22;;;16.10;99.90;;;;;;4861114;29;20060;-77
2022/07/22 04:53:15;;;;;;;12.80;2.70;;;16.20;99.90;;;;;;4853489;29;20166;-78
2022/07/22 04:55:41;;;;;;;6.57;2.35;;;16.20;99.90;;;;;;4859885;29;20120;-78
2022/07/22 04:58:07;;;;;;;6.85;2.78;;;16.20;99.90;;;;;;4863572;29;20041;-78
2022/07/22 05:00:33;;;;;;;5.47;2.20;;;16.20;99.90;;;;;;4866407;29;20052;-77
2022/07/22 05:02:58;;;;;;;6.25;2.85;;;16.20;99.90;;;;;;4857333;29;20040;-77
2022/07/22 05:05:24;;;;;;;5.78;2.40;;;16.20;99.90;;;;;;4866275;29;20078;-78
2022/07/22 05:07:50;;;;;;;8.70;3.05;;;16.20;99.90;;;;;;4863518;29;20041;-78
2022/07/22 05:10:16;;;;;;;12.82;2.95;;;16.30;99.90;;;;;;4856179;29;20045;-78
2022/07/22 05:12:42;;;;;;;4.93;2.20;;;16.20;99.90;;;;;;4870739;29;20045;-77
2022/07/22 05:15:08;;;;;;;4.70;2.13;;;16.20;99.90;;;;;;4858469;29;20136;-77
2022/07/22 05:17:34;;;;;;;7.80;2.50;;;16.20;99.90;;;;;;4858633;29;20447;-77
2022/07/22 05:20:04;;;;;;;7.97;2.50;;;16.20;99.90;;;;;;4875855;29;20108;-77
2022/07/22 05:22:30;;;;;;;9.30;2.63;;;16.20;99.90;;;;;;4853127;29;20041;-77
2022/07/22 05:24:56;;;;;;;7.68;2.53;;;16.20;99.90;;;;;;4855693;29;20049;-77
2022/07/22 05:27:22;;;;;;;9.68;2.47;;;16.20;99.90;;;;;;4855635;29;20200;-76
2022/07/22 05:29:47;;;;;;;5.10;2.45;;;16.20;99.90;;;;;;4846636;29;20100;-77
2022/07/22 05:32:14;;;;;;;7.28;2.50;;;16.20;99.90;;;;;;4846481;29;20049;-77
2022/07/22 05:34:40;;;;;;;4.93;2.38;;;16.20;99.90;;;;;;4861407;29;20406;-78
2022/07/22 05:37:05;;;;;;;6.80;2.03;;;16.20;99.90;;;;;;4871488;29;20048;-77
2022/07/22 05:39:31;;;;;;;5.07;2.10;;;16.20;99.90;;;;;;4861915;29;20033;-78
2022/07/22 05:41:57;;;;;;;6.07;2.15;;;16.30;99.90;;;;;;4863710;29;20395;-79
2022/07/22 05:44:22;;;;;;;5.70;2.50;;;16.30;99.90;;;;;;4836281;29;20048;-78
2022/07/22 05:46:48;;;;;;;5.20;2.35;;;16.30;99.90;;;;;;4832413;29;20128;-79
2022/07/22 05:49:14;;;;;;;5.25;2.22;;;16.30;99.90;;;;;;4870806;29;20089;-76
2022/07/22 05:51:39;;;;;;;5.03;2.33;;;16.40;99.90;;;;;;4856558;29;20127;-77
2022/07/22 05:54:05;;;;;;;3.92;2.00;;;16.40;99.90;;;;;;4841294;29;20084;-76
2022/07/22 05:56:31;;;;;;;4.72;2.08;;;16.40;99.90;;;;;;4862908;29;20070;-77
2022/07/22 05:58:57;;;;;;;6.25;2.00;;;16.50;99.90;;;;;;4855274;29;20102;-77
2022/07/22 06:01:22;;;;;;;8.18;2.20;;;16.50;99.90;;;;;;4851163;29;21206;-78
2022/07/22 06:03:48;;;;;;;4.15;1.88;;;16.50;99.90;;;;;;4854358;29;20093;-79
2022/07/22 06:06:14;;;;;;;7.47;2.20;;;16.50;99.90;;;;;;4843397;29;20033;-78
2022/07/22 06:08:40;;;;;;;5.05;1.88;;;16.50;99.90;;;;;;4850510;29;20037;-78
2022/07/22 06:11:05;;;;;;;4.78;1.98;;;16.50;99.90;;;;;;4850675;29;20034;-77
2022/07/22 06:13:32;;;;;;;5.28;2.00;;;16.60;99.90;;;;;;4841848;29;20132;-75
2022/07/22 06:15:58;;;;;;;3.20;1.95;;;16.70;99.90;;;;;;4867634;29;20491;-76
2022/07/22 06:18:24;;;;;;;4.95;2.03;;;16.60;99.90;;;;;;4850352;29;20057;-76
2022/07/22 06:20:49;;;;;;;7.10;2.17;;;16.70;99.90;;;;;;4877369;29;20434;-76
2022/07/22 06:23:15;;;;;;;4.50;2.10;;;16.70;99.90;;;;;;4851101;29;20166;-78
2022/07/22 06:25:42;;;;;;;6.65;2.22;;;16.70;99.90;;;;;;4844255;29;20049;-77
2022/07/22 06:28:07;;;;;;;6.18;2.40;;;16.70;99.90;;;;;;4868030;29;20106;-78
2022/07/22 06:30:33;;;;;;;7.47;2.25;;;16.80;99.90;;;;;;4869936;29;20471;-77
2022/07/22 06:32:59;;;;;;;5.93;2.20;;;16.80;99.90;;;;;;4855152;29;20404;-77
2022/07/22 06:35:24;;;;;;;9.93;2.40;;;16.80;99.90;;;;;;4871915;29;20094;-77
2022/07/22 06:37:51;;;;;;;5.20;2.10;;;16.80;99.90;;;;;;4869482;29;20094;-77
2022/07/22 06:40:16;;;;;;;4.10;1.98;;;16.80;99.90;;;;;;4856405;29;20520;-77
2022/07/22 06:42:42;;;;;;;4.22;1.83;;;16.80;99.90;;;;;;4850374;29;20046;-78
2022/07/22 06:45:08;;;;;;;7.85;1.67;;;16.80;99.90;;;;;;4859519;29;20067;-80
2022/07/22 06:47:35;;;;;;;4.10;1.73;;;16.80;99.90;;;;;;4864511;29;20069;-77
2022/07/22 06:50:03;;;;;;;6.00;2.05;;;16.80;99.90;;;;;;4861048;29;20110;-77
2022/07/22 06:52:29;;;;;;;8.15;1.95;;;16.90;99.90;;;;;;4869512;29;20048;-77
2022/07/22 06:54:54;;;;;;;4.55;1.98;;;16.90;99.90;;;;;;4860114;29;20570;-78
2022/07/22 06:57:20;;;;;;;5.78;1.83;;;16.90;99.90;;;;;;4862000;29;20040;-78
2022/07/22 06:59:46;;;;;;;3.55;1.58;;;16.90;99.90;;;;;;4877411;29;20052;-77
2022/07/22 07:02:11;;;;;;;5.03;1.98;;;17.00;99.90;;;;;;4857397;29;20041;-77
2022/07/22 07:04:37;;;;;;;4.22;1.75;;;17.00;99.90;;;;;;4836290;29;20057;-77
2022/07/22 07:07:03;;;;;;;7.07;1.70;;;17.00;99.90;;;;;;4841786;29;20051;-76
2022/07/22 07:09:29;;;;;;;8.05;1.70;;;17.00;99.90;;;;;;4859466;29;20512;-78
2022/07/22 07:11:55;;;;;;;7.13;1.73;;;17.00;99.90;;;;;;4848424;29;20045;-80
2022/07/22 07:14:21;;;;;;;8.93;2.05;;;17.00;99.90;;;;;;4841978;29;20068;-79
2022/07/22 07:16:47;;;;;;;5.80;1.90;;;17.10;99.90;;;;;;4858868;29;20137;-77
2022/07/22 07:19:12;;;;;;;3.92;1.75;;;17.10;99.90;;;;;;4838344;29;20129;-76
2022/07/22 07:21:38;;;;;;;6.75;1.80;;;17.20;99.90;;;;;;4858122;29;20040;-76
2022/07/22 07:24:04;;;;;;;7.82;1.90;;;17.20;99.90;;;;;;4875960;29;20076;-77
2022/07/22 07:26:30;;;;;;;7.72;1.80;;;17.20;99.90;;;;;;4861826;29;20045;-77
2022/07/22 07:28:56;;;;;;;7.07;1.80;;;17.30;99.90;;;;;;4869001;29;20102;-77
2022/07/22 07:31:23;;;;;;;5.47;1.83;;;17.30;99.90;;;;;;4859569;29;20049;-77
2022/07/22 07:33:50;;;;;;;7.75;1.95;;;17.40;99.90;;;;;;4858782;29;20451;-77
2022/07/22 07:36:15;;;;;;;7.90;1.55;;;17.40;99.90;;;;;;4877556;29;20119;-77
2022/07/22 07:38:41;;;;;;;3.58;1.55;;;17.50;99.90;;;;;;4847220;29;20558;-77
2022/07/22 07:41:07;;;;;;;5.97;1.42;;;17.50;99.90;;;;;;4869444;29;20041;-79
2022/07/22 07:43:34;;;;;;;3.83;1.45;;;17.50;99.90;;;;;;4853974;29;20049;-77
2022/07/22 07:46:00;;;;;;;5.03;1.70;;;17.50;99.90;;;;;;4847064;29;20135;-76
2022/07/22 07:48:26;;;;;;;4.63;1.50;;;17.50;99.90;;;;;;4876977;29;20096;-77
2022/07/22 07:50:51;;;;;;;4.85;1.80;;;17.50;99.90;;;;;;4832113;29;20135;-77
2022/07/22 07:53:18;;;;;;;5.75;1.50;;;17.50;99.90;;;;;;4860387;29;20049;-77
2022/07/22 07:55:44;;;;;;;4.50;2.00;;;17.60;99.90;;;;;;4861103;29;20097;-77
2022/07/22 07:58:09;;;;;;;3.55;1.50;;;17.70;99.90;;;;;;4843924;29;20056;-77
2022/07/22 08:00:36;;;;;;;6.97;1.50;;;17.70;99.90;;;;;;4846826;29;20037;-77
2022/07/22 08:03:03;;;;;;;5.28;1.40;;;17.90;99.90;;;;;;4843802;29;20095;-77
2022/07/22 08:05:29;;;;;;;3.10;1.20;;;17.90;99.90;;;;;;4843749;29;20046;-77
2022/07/22 08:07:55;;;;;;;4.53;1.27;;;18.00;99.90;;;;;;4856339;29;20080;-76
2022/07/22 08:10:21;;;;;;;3.55;1.45;;;18.10;99.90;;;;;;4862043;29;20538;-77
2022/07/22 08:12:48;;;;;;;2.92;1.38;;;18.10;99.90;;;;;;4843979;29;20045;-77
2022/07/22 08:15:14;;;;;;;5.60;1.08;;;18.10;99.90;;;;;;4874921;29;20509;-78
2022/07/22 08:17:40;;;;;;;4.50;1.33;;;18.10;99.90;;;;;;4845595;29;20045;-78
2022/07/22 08:20:07;;;;;;;2.05;1.00;;;18.20;99.90;;;;;;4874454;29;20494;-78
2022/07/22 08:22:33;;;;;;;3.70;1.25;;;18.30;99.90;;;;;;4843877;29;20045;-78
2022/07/22 08:24:59;;;;;;;6.57;1.30;;;18.40;99.90;;;;;;4858978;29;20456;-78
2022/07/22 08:27:24;;;;;;;4.85;1.52;;;18.60;99.90;;;;;;4844510;29;20077;-78
2022/07/22 08:29:50;;;;;;;3.92;2.15;;;18.70;99.90;;;;;;4860659;29;20045;-78
2022/07/22 08:32:16;;;;;;;8.20;1.50;;;18.80;99.90;;;;;;4864244;29;20052;-77
2022/07/22 08:34:42;;;;;;;3.85;1.60;;;18.80;99.90;;;;;;4864625;29;20052;-78
2022/07/22 08:37:07;;;;;;;6.88;1.73;;;18.80;99.90;;;;;;4876937;29;20048;-77
2022/07/22 08:39:34;;;;;;;3.90;1.55;;;18.70;99.90;;;;;;4868890;29;20041;-77
2022/07/22 08:41:59;;;;;;;4.10;1.70;;;18.70;99.90;;;;;;4879257;29;20053;-79
2022/07/22 08:44:30;;;;;;;2.88;1.52;;;18.60;99.90;;;;;;4846880;29;20045;-78
2022/07/22 08:46:55;;;;;;;5.53;1.60;;;18.60;99.90;;;;;;4861752;29;20441;-79
2022/07/22 08:49:21;;;;;;;4.72;1.60;;;18.60;99.90;;;;;;4860696;29;20064;-77
2022/07/22 08:51:47;;;;;;;6.93;1.50;;;18.60;99.90;;;;;;4864491;29;20049;-78
2022/07/22 08:54:13;;;;;;;5.13;1.40;;;18.60;99.90;;;;;;4847995;29;20052;-78
2022/07/22 08:56:39;;;;;;;3.70;1.25;;;18.60;99.90;;;;;;4865002;29;20068;-78
2022/07/22 08:59:04;;;;;;;4.72;1.10;;;18.60;99.90;;;;;;4853750;29;20041;-78
2022/07/22 09:01:30;;;;;;;4.55;1.17;;;18.70;99.90;;;;;;4842660;29;20479;-78
2022/07/22 09:03:57;;;;;;;3.40;1.20;;;18.60;99.90;;;;;;4875798;29;20033;-78
2022/07/22 09:06:25;;;;;;;8.10;1.60;;;18.60;99.90;;;;;;4880087;29;20036;-78
2022/07/22 09:08:56;;;;;;;4.88;1.20;;;18.60;99.90;;;;;;4864507;29;20107;-78
2022/07/22 09:11:25;;;;;;;5.10;1.85;;;18.50;99.90;;;;;;4847957;29;20038;-78
2022/07/22 09:13:52;;;;;;;7.13;1.40;;;18.50;99.90;;;;;;4863156;29;20048;-78
2022/07/22 09:16:41;;;;;;;4.53;1.50;;;18.50;99.90;;;;;;4863625;29;20053;-78
2022/07/22 09:19:08;;;;;;;4.32;1.33;;;18.50;99.90;;;;;;4877985;29;20116;-78
2022/07/22 09:21:39;;;;;;;7.80;1.30;;;18.60;99.90;;;;;;4868477;29;20041;-78
2022/07/22 09:24:06;;;;;;;4.80;1.27;;;18.60;99.90;;;;;;4851303;29;20137;-78
2022/07/22 09:26:36;;;;;;;3.63;1.27;;;18.60;99.90;;;;;;4869536;29;20144;-77
2022/07/22 09:29:04;;;;;;;5.60;1.20;;;18.70;99.90;;;;;;4869943;29;20051;-77
2022/07/22 09:31:32;;;;;;;2.40;1.25;;;18.70;99.90;;;;;;4871235;29;20049;-78
2022/07/22 09:33:58;;;;;;;2.80;1.00;;;18.80;99.90;;;;;;4855286;29;20037;-78
2022/07/22 09:36:25;;;;;;;6.13;1.10;;;18.80;99.90;;;;;;4861357;29;20133;-78
2022/07/22 09:38:51;;;;;;;5.80;1.20;;;18.90;99.90;;;;;;4858261;29;20052;-78
2022/07/22 09:41:17;;;;;;;6.13;1.20;;;19.00;99.90;;;;;;4863575;29;20532;-78
2022/07/22 09:43:43;;;;;;;3.42;1.13;;;19.10;99.90;;;;;;4861670;29;20072;-78
2022/07/22 09:46:09;;;;;;;3.53;1.30;;;19.10;99.90;;;;;;4866971;29;20570;-78
2022/07/22 09:48:37;;;;;;;4.03;1.05;;;19.20;99.90;;;;;;4854886;29;20061;-78
2022/07/22 09:51:04;;;;;;;4.28;1.27;;;19.30;99.90;;;;;;4861452;29;20041;-78
2022/07/22 09:53:31;;;;;;;6.13;1.30;;;19.40;99.90;;;;;;4863107;29;20060;-78
2022/07/22 09:55:58;;;;;;;4.07;1.30;;;19.40;99.90;;;;;;4867760;29;20742;-78
2022/07/22 09:58:25;;;;;;;3.70;1.20;;;19.40;99.90;;;;;;4851627;29;20170;-78
2022/07/22 10:00:52;;;;;;;2.97;1.05;;;19.50;99.90;;;;;;4867481;29;20038;-78
2022/07/22 10:03:25;;;;;;;6.03;2.05;;;19.50;99.90;;;;;;4866308;29;20036;-78
2022/07/22 10:05:52;;;;;;;3.70;1.38;;;19.50;99.90;;;;;;4862596;29;20061;-78
2022/07/22 10:08:19;;;;;;;3.85;1.30;;;19.50;99.90;;;;;;4870535;29;20053;-78
2022/07/22 10:10:45;;;;;;;3.63;1.20;;;19.50;99.90;;;;;;4831853;29;20044;-78
2022/07/22 10:13:10;;;;;;;4.45;1.33;;;19.50;99.90;;;;;;4873662;29;20042;-78
2022/07/22 10:15:37;;;;;;;3.58;1.30;;;19.50;99.90;;;;;;4866498;29;20483;-78
2022/07/22 10:18:15;;;;;;;5.63;1.27;;;19.50;99.90;;;;;;4855423;29;20045;-78
2022/07/22 10:20:41;;;;;;;4.60;1.10;;;19.50;99.90;;;;;;4866378;29;20449;-78
2022/07/22 10:23:09;;;;;;;2.83;1.05;;;19.60;99.90;;;;;;4858775;29;20068;-77
2022/07/22 10:25:53;;;;;;;4.60;1.40;;;19.50;99.90;;;;;;4872472;29;20048;-78
2022/07/22 10:28:31;;;;;;;3.05;1.10;;;19.50;99.90;;;;;;4865779;29;20033;-78
2022/07/22 10:31:23;;;;;;;4.10;1.35;;;19.40;99.90;;;;;;4869069;29;20395;-78
2022/07/22 10:33:52;;;;;;;5.40;1.10;;;19.50;99.90;;;;;;4873249;29;20045;-77
2022/07/22 10:36:50;;;;;;;4.70;1.23;;;19.40;99.90;;;;;;4862933;29;20052;-78
2022/07/22 10:39:16;;;;;;;5.55;1.30;;;19.40;99.90;;;;;;4823280;29;20057;-78
2022/07/22 10:41:44;;;;;;;2.90;1.40;;;19.40;99.90;;;;;;4859257;29;20049;-78
2022/07/22 10:44:10;;;;;;;5.32;1.27;;;19.40;99.90;;;;;;4872363;29;20056;-78
2022/07/22 10:46:58;;;;;;;2.28;1.02;;;19.30;99.90;;;;;;4855937;29;20045;-78
2022/07/22 10:49:25;;;;;;;4.13;1.33;;;19.30;99.90;;;;;;4862822;29;20092;-78
2022/07/22 10:52:06;;;;;;;5.93;1.33;;;19.30;99.90;;;;;;4866984;29;20050;-78
2022/07/22 10:54:32;;;;;;;7.50;1.10;;;19.30;99.90;;;;;;4860291;29;20041;-78
2022/07/22 10:57:00;;;;;;;8.02;1.30;;;19.30;99.90;;;;;;4847206;29;20037;-77
2022/07/22 10:59:26;;;;;;;4.00;1.20;;;19.30;99.90;;;;;;4870308;29;20053;-77
2022/07/22 11:01:53;;;;;;;5.53;1.13;;;19.40;99.90;;;;;;4860692;29;20046;-78
2022/07/22 11:04:24;;;;;;;4.07;1.30;;;19.40;99.90;;;;;;4862015;29;20041;-79
2022/07/22 11:06:52;;;;;;;5.85;1.52;;;19.50;99.90;;;;;;4857323;29;20562;-77
2022/07/22 11:09:20;;;;;;;4.10;1.30;;;19.40;99.90;;;;;;4855735;29;20487;-77
2022/07/22 11:11:52;;;;;;;3.17;1.27;;;19.40;99.90;;;;;;4851764;29;20094;-77
2022/07/22 11:14:20;;;;;;;3.17;1.20;;;19.30;99.90;;;;;;4870660;29;20045;-78
2022/07/22 11:16:49;;;;;;;6.28;1.75;;;19.30;99.90;;;;;;4876373;29;20048;-78
2022/07/22 11:19:20;;;;;;;3.42;1.48;;;19.30;99.90;;;;;;4870117;29;20041;-78
2022/07/22 11:21:50;;;;;;;6.68;1.30;;;19.20;99.90;;;;;;4859919;29;20443;-77
2022/07/22 11:24:16;;;;;;;7.18;1.40;;;19.10;99.90;;;;;;4868676;29;20048;-78
2022/07/22 11:26:44;;;;;;;5.00;1.52;;;19.10;99.90;;;;;;4855268;29;20045;-78
2022/07/22 11:29:15;;;;;;;3.58;1.40;;;19.10;99.90;;;;;;4859102;29;20050;-77
2022/07/22 11:31:40;;;;;;;2.70;1.20;;;19.10;99.90;;;;;;4858468;29;20041;-78
2022/07/22 11:34:15;;;;;;;4.45;1.30;;;19.20;99.90;;;;;;4860156;29;20048;-78
2022/07/22 11:36:43;;;;;;;4.18;1.50;;;19.20;99.90;;;;;;4862124;29;20056;-78
2022/07/22 11:39:11;;;;;;;3.72;1.70;;;19.30;99.90;;;;;;4871389;29;20040;-78
2022/07/22 11:41:37;;;;;;;6.28;1.02;;;19.40;99.90;;;;;;4865856;29;20103;-78
2022/07/22 11:44:03;;;;;;;3.70;1.17;;;19.40;99.90;;;;;;4860410;29;20051;-78
2022/07/22 11:46:39;;;;;;;3.58;1.10;;;19.50;99.90;;;;;;4871615;29;20125;-78
2022/07/22 11:49:06;;;;;;;2.92;1.10;;;19.60;99.90;;;;;;4875401;29;20056;-79
2022/07/22 11:51:34;;;;;;;4.95;1.50;;;19.60;99.90;;;;;;4849890;29;20045;-78
2022/07/22 11:54:00;;;;;;;5.30;1.48;;;19.60;99.90;;;;;;4897302;29;20045;-77
2022/07/22 11:56:26;;;;;;;3.67;1.10;;;19.60;99.90;;;;;;4876944;29;20045;-77
2022/07/22 11:58:54;;;;;;;5.28;1.10;;;19.50;99.90;;;;;;4856982;29;20045;-78
2022/07/22 12:01:21;;;;;;;1.98;1.00;;;19.50;99.90;;;;;;4852230;29;20045;-78
2022/07/22 12:03:51;;;;;;;4.80;1.20;;;19.50;99.90;;;;;;4877006;29;20047;-78
2022/07/22 12:06:19;;;;;;;4.10;1.20;;;19.70;99.90;;;;;;4855271;29;20041;-78
2022/07/22 12:09:01;;;;;;;3.63;1.00;;;19.80;99.90;;;;;;4856037;29;20121;-78
2022/07/22 12:11:27;;;;;;;4.78;1.30;;;19.90;99.90;;;;;;4864861;29;20049;-77
2022/07/22 12:13:53;;;;;;;6.80;1.27;;;20.00;99.90;;;;;;4879279;29;20037;-78
2022/07/22 12:16:29;;;;;;;4.05;1.20;;;20.10;99.90;;;;;;4855727;29;20048;-77
2022/07/22 12:19:12;;;;;;;4.05;1.05;;;20.10;99.90;;;;;;4854355;29;20132;-78
2022/07/22 12:21:57;;;;;;;4.70;0.90;;;20.10;99.90;;;;;;4862292;29;20041;-78
2022/07/22 12:24:44;;;;;;;2.60;1.02;;;20.20;99.90;;;;;;4879395;29;20055;-78
2022/07/22 12:27:11;;;;;;;3.60;1.30;;;20.20;99.90;;;;;;4880756;29;20068;-77
2022/07/22 12:29:36;;;;;;;2.60;1.33;;;20.20;99.90;;;;;;4875575;29;20052;-77
2022/07/22 12:32:10;;;;;;;5.97;1.70;;;20.20;99.90;;;;;;4871396;29;20049;-78
2022/07/22 12:34:46;;;;;;;2.08;1.00;;;20.20;99.90;;;;;;4854474;29;20056;-78
2022/07/22 12:37:26;;;;;;;3.10;1.20;;;20.20;99.90;;;;;;4872694;29;20033;-78
2022/07/22 12:39:59;;;;;;;5.63;1.50;;;20.20;99.90;;;;;;4877937;29;20128;-78
2022/07/22 12:42:27;;;;;;;3.45;1.10;;;20.20;99.90;;;;;;4857482;29;20506;-78
2022/07/22 12:45:01;;;;;;;3.08;1.05;;;20.20;99.90;;;;;;4886343;29;20050;-78